This is the latest recevied weather packets stored in our database for station/object KI7JYE. If no packets are shown the sender has not sent any weather packets the latest 1 day(s).
| Time | Temp. | Humidity | Pressure | Rain* | Wind** | Luminosity | Snow |
|---|---|---|---|---|---|---|---|
| 1836274645 | 20° C | 69% | 1012 hPa | 0 mm | 0 m/s | 0 W/m² | - |
| 1836274498 | 19.44° C | 71% | 1012 hPa | 0 mm | 0 m/s | 0 W/m² | - |
| 1836274343 | 20° C | 68% | 1011.7 hPa | 0 mm | 0 m/s | 0 W/m² | - |
| 1836274196 | 19.44° C | 70% | 1011.9 hPa | 0 mm | 0 m/s | 0 W/m² | - |
| 1836274042 | 20° C | 68% | 1011.6 hPa | 0 mm | 0 m/s | 0 W/m² | - |
| 1778060432 | 13.33° C | 88% | 1016.6 hPa | 0 mm | 0 m/s | 0 W/m² | - |
| 1778060130 | 13.33° C | 88% | 1016.6 hPa | 0 mm | 0 m/s | 0 W/m² | - |
| 1778059827 | 13.33° C | 88% | 1016.6 hPa | 0 mm | 0 m/s | 0 W/m² | - |
| 1778059525 | 13.33° C | 88% | 1016.5 hPa | 0 mm | 0 m/s | 0 W/m² | - |
| 1778059221 | 13.89° C | 87% | 1016.7 hPa | 0 mm | 0 m/s | 0 W/m² | - |
| 1778058920 | 13.89° C | 87% | 1016.5 hPa | 0 mm | 0 m/s | 0 W/m² | - |
| 1778058616 | 13.89° C | 87% | 1016.5 hPa | 0 mm | 0.45 m/s, 208° | 0 W/m² | - |
| 1778058314 | 13.89° C | 86% | 1016.6 hPa | 0 mm | 0 m/s | 0 W/m² | - |
| 1778058010 | 13.89° C | 87% | 1016.5 hPa | 0 mm | 0 m/s | 0 W/m² | - |
| 1778057707 | 13.89° C | 87% | 1016.4 hPa | 0 mm | 0 m/s | 0 W/m² | - |
| 1778057404 | 13.89° C | 86% | 1016.4 hPa | 0 mm | 0 m/s | 0 W/m² | - |
| 1778057101 | 13.89° C | 86% | 1016.3 hPa | 0 mm | 0 m/s | 0 W/m² | - |
| 1778056796 | 13.89° C | 86% | 1016.3 hPa | 0 mm | 0 m/s | 0 W/m² | - |
| 1778056494 | 13.89° C | 86% | 1016.5 hPa | 0 mm | 0.45 m/s, 215° | 0 W/m² | - |
| 1778056191 | 13.89° C | 86% | 1016.4 hPa | 0 mm | 0.45 m/s, 215° | 0 W/m² | - |
| 1778055888 | 13.89° C | 86% | 1016.4 hPa | 0 mm | 0 m/s | 0 W/m² | - |
| 1778055584 | 13.89° C | 86% | 1016.5 hPa | 0 mm | 1.34 m/s, 168° | 0 W/m² | - |
| 1778055282 | 13.89° C | 86% | 1016.3 hPa | 0 mm | 0.89 m/s, 182° | 0 W/m² | - |
| 1778054979 | 13.89° C | 86% | 1016.1 hPa | 0 mm | 0 m/s | 0 W/m² | - |
| 1778054676 | 14.44° C | 86% | 1016.5 hPa | 0 mm | 0 m/s | 0 W/m² | - |
* Rain latest hour (hover to see other rain measurements)
** Current wind speed in m/s (hover to see current wind gust speed)